createdAt,value
2023-01-28T00:04:09.166Z,2.51
2023-01-28T00:09:12.171Z,2.44
2023-01-28T00:14:16.327Z,2.45
2023-01-28T00:19:18.991Z,2.43
2023-01-28T00:24:21.913Z,2.43
2023-01-28T00:29:26.027Z,2.40
2023-01-28T00:34:28.750Z,2.35
2023-01-28T00:39:31.531Z,2.28
2023-01-28T00:44:38.417Z,2.28
2023-01-28T00:49:41.492Z,2.24
2023-01-28T00:54:45.216Z,2.23
2023-01-28T00:59:49.272Z,2.20
2023-01-28T01:04:59.348Z,2.28
2023-01-28T01:10:02.968Z,2.28
2023-01-28T01:15:10.365Z,2.31
2023-01-28T01:20:15.386Z,2.22
2023-01-28T01:25:19.032Z,2.24
2023-01-28T01:30:25.945Z,2.22
2023-01-28T01:35:28.669Z,2.20
2023-01-28T01:40:31.713Z,2.16
2023-01-28T01:45:37.909Z,2.16
2023-01-28T01:50:43.679Z,2.20
2023-01-28T01:55:48.139Z,2.22
2023-01-28T02:00:54.649Z,2.16
2023-01-28T02:05:57.482Z,2.11
2023-01-28T02:11:02.433Z,2.10
2023-01-28T02:16:08.007Z,2.07
2023-01-28T02:21:26.108Z,2.07
2023-01-28T02:26:49.859Z,2.05
2023-01-28T02:31:58.632Z,1.99
2023-01-28T02:37:06.173Z,1.99
2023-01-28T02:42:13.508Z,1.96
2023-01-28T02:47:35.220Z,1.94
2023-01-28T02:53:10.270Z,1.91
2023-01-28T02:58:20.307Z,1.89
2023-01-28T03:03:28.649Z,1.80
2023-01-28T03:08:52.465Z,1.84
2023-01-28T03:14:12.854Z,1.77
2023-01-28T03:19:35.362Z,1.77
2023-01-28T03:25:01.842Z,1.78
2023-01-28T03:30:26.312Z,1.84
2023-01-28T03:35:51.547Z,1.90
2023-01-28T03:40:57.297Z,1.86
2023-01-28T03:46:00.446Z,1.85
2023-01-28T03:51:05.086Z,1.86
2023-01-28T03:56:09.644Z,1.85
2023-01-28T04:01:15.788Z,1.83
2023-01-28T04:06:20.253Z,1.88
2023-01-28T04:11:39.714Z,1.93
2023-01-28T04:16:43.931Z,1.94
2023-01-28T04:21:48.905Z,1.89
2023-01-28T04:26:51.882Z,1.83
2023-01-28T04:31:55.213Z,1.88
2023-01-28T04:37:37.890Z,1.94
2023-01-28T04:42:54.521Z,1.88
2023-01-28T04:48:07.109Z,1.89
2023-01-28T04:53:40.196Z,1.88
2023-01-28T04:58:55.586Z,1.79
2023-01-28T05:03:59.604Z,1.79
2023-01-28T05:09:05.544Z,1.66
2023-01-28T05:14:09.324Z,1.61
2023-01-28T05:19:19.194Z,1.51
2023-01-28T05:24:24.380Z,1.55
2023-01-28T05:29:27.240Z,1.62
2023-01-28T05:34:30.101Z,1.64
2023-01-28T05:39:36.879Z,1.67
2023-01-28T05:44:39.824Z,1.70
2023-01-28T05:49:51.145Z,1.65
2023-01-28T05:55:21.260Z,1.61
2023-01-28T06:00:24.521Z,1.47
2023-01-28T06:05:27.538Z,1.51
2023-01-28T06:10:31.906Z,1.50
2023-01-28T06:15:34.948Z,1.53
2023-01-28T06:20:50.288Z,1.49
2023-01-28T06:25:56.357Z,1.38
2023-01-28T06:31:00.237Z,1.33
2023-01-28T06:36:03.794Z,1.44
2023-01-28T06:41:08.034Z,1.33
2023-01-28T06:46:10.962Z,1.35
2023-01-28T06:51:13.862Z,1.35
2023-01-28T06:56:18.206Z,1.32
2023-01-28T07:01:21.264Z,1.42
2023-01-28T07:06:24.106Z,1.56
2023-01-28T07:11:28.316Z,1.41
2023-01-28T07:16:36.021Z,1.45
2023-01-28T07:21:38.740Z,1.45
2023-01-28T07:26:42.839Z,1.44
2023-01-28T07:31:45.631Z,1.47
2023-01-28T07:36:48.564Z,1.43
2023-01-28T07:41:52.615Z,1.48
2023-01-28T07:47:16.364Z,1.53
2023-01-28T07:52:19.124Z,1.53
2023-01-28T07:57:24.209Z,1.48
2023-01-28T08:02:26.948Z,1.48
2023-01-28T08:07:29.785Z,1.42
2023-01-28T08:12:33.910Z,1.49
2023-01-28T08:17:36.608Z,1.47
2023-01-28T08:22:39.365Z,1.40
2023-01-28T08:27:43.538Z,1.38
2023-01-28T08:32:46.257Z,1.37
2023-01-28T08:37:48.948Z,1.45
2023-01-28T08:42:54.225Z,1.54
2023-01-28T08:47:58.732Z,1.46
2023-01-28T08:53:02.795Z,1.60
2023-01-28T08:58:09.306Z,1.69
2023-01-28T09:03:12.358Z,1.81
2023-01-28T09:08:16.185Z,1.81
2023-01-28T09:13:20.304Z,1.76
2023-01-28T09:18:23.239Z,1.71
2023-01-28T09:23:25.921Z,1.71
2023-01-28T09:28:30.629Z,1.73
2023-01-28T09:33:33.511Z,1.72
2023-01-28T09:38:36.286Z,1.81
2023-01-28T09:43:52.563Z,1.81
2023-01-28T09:48:55.625Z,1.88
2023-01-28T09:54:00.795Z,1.90
2023-01-28T09:59:13.165Z,1.90
2023-01-28T10:04:24.765Z,1.86
2023-01-28T10:09:35.334Z,1.90
2023-01-28T10:14:49.796Z,1.83
2023-01-28T10:19:55.582Z,1.86
2023-01-28T10:25:01.939Z,1.86
2023-01-28T10:30:18.771Z,1.93
2023-01-28T10:35:22.111Z,1.91
2023-01-28T10:40:24.837Z,1.84
2023-01-28T10:45:32.171Z,1.83
2023-01-28T10:50:35.877Z,1.90
2023-01-28T10:55:49.820Z,1.97
2023-01-28T11:00:55.741Z,1.99
2023-01-28T11:05:59.779Z,1.83
2023-01-28T11:11:02.592Z,1.89
2023-01-28T11:16:14.280Z,1.96
2023-01-28T11:21:19.529Z,2.02
2023-01-28T11:26:24.158Z,2.07
2023-01-28T11:31:28.818Z,2.10
2023-01-28T11:36:33.786Z,2.08
2023-01-28T11:41:37.533Z,2.19
2023-01-28T11:46:50.444Z,2.24
2023-01-28T11:51:57.766Z,2.28
2023-01-28T11:57:08.819Z,2.25
2023-01-28T12:02:25.302Z,2.21
2023-01-28T12:07:37.194Z,2.13
2023-01-28T12:12:50.092Z,2.03
2023-01-28T12:18:01.976Z,2.04
2023-01-28T12:23:15.623Z,2.03
2023-01-28T12:28:30.573Z,1.99
2023-01-28T12:33:53.486Z,1.93
2023-01-28T12:39:04.542Z,1.92
2023-01-28T12:44:11.135Z,2.00
2023-01-28T12:49:19.196Z,1.99
2023-01-28T12:54:26.552Z,1.99
2023-01-28T12:59:32.179Z,2.15
2023-01-28T13:04:40.111Z,2.20
2023-01-28T13:09:50.606Z,2.12
2023-01-28T13:14:54.448Z,2.20
2023-01-28T13:19:59.105Z,2.22
2023-01-28T13:25:20.684Z,2.06
2023-01-28T13:30:28.348Z,2.13
2023-01-28T13:35:37.651Z,2.13
2023-01-28T13:40:42.545Z,2.17
2023-01-28T13:45:56.659Z,2.16
2023-01-28T13:51:01.876Z,2.09
2023-01-28T13:56:07.844Z,2.15
2023-01-28T14:01:48.394Z,2.12
2023-01-28T14:07:04.884Z,2.09
2023-01-28T14:12:45.866Z,2.07
2023-01-28T14:17:50.457Z,2.02
2023-01-28T14:22:59.888Z,1.99
2023-01-28T14:28:04.208Z,1.92
2023-01-28T14:33:10.567Z,1.93
2023-01-28T14:38:17.415Z,2.02
2023-01-28T14:43:22.790Z,1.99
2023-01-28T14:48:26.798Z,1.92
2023-01-28T14:53:41.014Z,1.81
2023-01-28T14:58:46.675Z,1.79
2023-01-28T15:03:49.615Z,1.70
2023-01-28T15:08:53.917Z,1.73
2023-01-28T15:13:58.234Z,1.75
2023-01-28T15:19:02.325Z,1.83
2023-01-28T15:24:07.271Z,1.90
2023-01-28T15:29:24.836Z,1.83
2023-01-28T15:34:30.296Z,1.65
2023-01-28T15:39:35.101Z,1.48
2023-01-28T15:44:40.306Z,1.37
2023-01-28T15:49:46.562Z,1.33
2023-01-28T15:54:52.557Z,1.39
2023-01-28T16:00:10.491Z,1.57
2023-01-28T16:05:27.763Z,1.58
2023-01-28T16:10:32.456Z,1.69
2023-01-28T16:15:36.623Z,1.61
2023-01-28T16:20:39.601Z,1.54
2023-01-28T16:25:43.755Z,1.40
2023-01-28T16:30:46.590Z,1.37
2023-01-28T16:36:05.471Z,1.42
2023-01-28T16:41:23.896Z,1.56
2023-01-28T16:46:28.070Z,1.60
2023-01-28T16:51:30.972Z,1.59
2023-01-28T16:56:45.015Z,1.49
2023-01-28T17:01:49.037Z,1.47
2023-01-28T17:06:53.233Z,1.36
2023-01-28T17:11:58.060Z,1.29
2023-01-28T17:17:00.875Z,1.24
2023-01-28T17:22:03.769Z,1.25
2023-01-28T17:27:07.972Z,1.14
2023-01-28T17:32:10.835Z,1.06
2023-01-28T17:37:13.674Z,1.09
2023-01-28T17:42:17.934Z,1.08
2023-01-28T17:47:21.016Z,1.12
2023-01-28T17:52:23.742Z,1.14
2023-01-28T17:57:27.795Z,1.09
2023-01-28T18:02:30.694Z,1.08
2023-01-28T18:07:33.526Z,1.08
2023-01-28T18:12:37.645Z,1.06
2023-01-28T18:17:40.393Z,1.12
2023-01-28T18:22:43.445Z,1.03
2023-01-28T18:27:47.679Z,1.13
2023-01-28T18:32:50.579Z,1.14
2023-01-28T18:37:53.397Z,1.11
2023-01-28T18:42:57.606Z,1.05
2023-01-28T18:48:00.319Z,1.08
2023-01-28T18:53:03.219Z,0.97
2023-01-28T18:58:07.314Z,0.98
2023-01-28T19:03:09.991Z,0.91
2023-01-28T19:08:12.807Z,0.95
2023-01-28T19:13:16.907Z,0.95
2023-01-28T19:18:19.707Z,1.01
2023-01-28T19:23:22.892Z,1.06
2023-01-28T19:28:26.917Z,1.10
2023-01-28T19:33:29.886Z,1.10
2023-01-28T19:38:32.599Z,1.07
2023-01-28T19:43:37.116Z,1.16
2023-01-28T19:48:40.240Z,1.08
2023-01-28T19:53:43.957Z,1.08
2023-01-28T19:58:48.332Z,1.05
2023-01-28T20:03:52.584Z,0.95
2023-01-28T20:08:56.870Z,0.93
2023-01-28T20:14:01.046Z,1.02
2023-01-28T20:19:05.177Z,1.01
2023-01-28T20:24:08.677Z,0.92
2023-01-28T20:29:14.424Z,0.96
2023-01-28T20:34:20.006Z,0.81
2023-01-28T20:39:22.730Z,0.72
2023-01-28T20:44:31.817Z,0.78
2023-01-28T20:49:34.522Z,0.73
2023-01-28T20:54:37.271Z,0.59
2023-01-28T20:59:41.346Z,0.60
2023-01-28T21:04:44.127Z,0.65
2023-01-28T21:09:46.841Z,0.75
2023-01-28T21:14:51.016Z,0.76
2023-01-28T21:19:53.804Z,0.46
2023-01-28T21:24:56.454Z,0.49
2023-01-28T21:30:00.647Z,0.52
2023-01-28T21:35:03.589Z,0.59
2023-01-28T21:40:07.609Z,0.48
2023-01-28T21:45:12.730Z,0.55
2023-01-28T21:50:16.374Z,0.55
2023-01-28T21:55:19.518Z,0.55
2023-01-28T22:00:24.289Z,0.45
2023-01-28T22:05:26.976Z,0.55
2023-01-28T22:10:29.715Z,0.29
2023-01-28T22:15:34.824Z,0.43
2023-01-28T22:20:37.583Z,0.61
2023-01-28T22:25:40.233Z,0.58
2023-01-28T22:30:44.343Z,0.55
2023-01-28T22:35:47.377Z,0.56
2023-01-28T22:40:50.093Z,0.40
2023-01-28T22:46:00.260Z,0.19
2023-01-28T22:51:03.891Z,0.17
2023-01-28T22:56:07.515Z,0.21
2023-01-28T23:01:15.415Z,0.30
2023-01-28T23:06:19.963Z,0.27
2023-01-28T23:11:28.934Z,0.20
2023-01-28T23:16:50.804Z,0.06
2023-01-28T23:22:11.202Z,-0.03
2023-01-28T23:27:14.009Z,-0.04
2023-01-28T23:32:18.105Z,0.00
2023-01-28T23:37:20.935Z,-0.09
2023-01-28T23:42:25.965Z,-0.09
2023-01-28T23:47:30.071Z,-0.08
2023-01-28T23:52:32.774Z,0.00
2023-01-28T23:57:36.969Z,-0.01
